ダッカ の空港の天気 - METARとTAF

シャージャラル国際空港(ダッカ) ( VGHS / DAC ) - バングラデシュ ダッカ
飛行場実況気象(Metar)
観測時間09/22 07:30 BDT (09/22 01:30 UTC)
風向・風速東南東 2m/s
視程3500m
天気現象煙霧
全天の4割程度の雲 雲底高度 300m
全天の8割程度の雲 雲底高度 3050m
気温28℃
湿度79%
気圧1003hPa
METARVGHS 220130Z 12003KT 3500 HZ SCT010 BKN100 28/24 Q1003 TEMPO RA
過去の天気等 Google飛行場航空写真 Wunderground天気予報

過去48時間のMETAR

飛行場予報(TAF)
発表時間: 9/22 05:00 BDT (9/21 23:00 UTC)
予報対象時間: 22日6時 BDT ~ 23日12時 BDT
風向・風速東南東 4m/s
視程3500m
天気現象煙霧
全天の4割程度の雲 雲底高度 370m
全天の8割程度の雲 雲底高度 3050m
22日6時 BDT ~ 22日9時 BDT に一時的に
風向・風速南 13m/s
視程2000m
22日9時 BDT ~ 22日11時 BDT に徐々に
風向・風速東南東 5m/s
視程3500m
天気現象煙霧
全天の4割程度の雲 雲底高度 370m
全天の8割程度の雲 雲底高度 3050m
22日12時 BDT ~ 22日15時 BDT に一時的に
風向・風速南 13m/s
視程2000m
22日15時 BDT ~ 22日17時 BDT に徐々に
風向・風速南東 5m/s
視程4000m
天気現象煙霧
全天の4割程度の雲 雲底高度 370m
全天の8割程度の雲 雲底高度 3050m
TAF VGHS 212300Z 2200/2306 12008KT 3500 HZ SCT012 BKN100
TEMPO 2200/2203 18025KT 2000 RA/TSRA BKN008 FEW025CB OVC090
BECMG 2203/2205 12010KT 3500 HZ SCT012 BKN100
TEMPO 2206/2209 18025KT 2000 RA/TSRA BKN008 FEW025CB OVC090
BECMG 2209/2211 13010KT 4000 HZ SCT012 BKN100